Time;durP1;ratioP1;P1;durP2;ratioP2;P2;SDS_P1;SDS_P2;PMS_P1;PMS_P2;Temp;Humidity;BMP_temperature;BMP_pressure;BME280_temperature;BME280_humidity;BME280_pressure;Samples;Min_cycle;Max_cycle;Signal;HPM_P1;HPM_P2
2022/03/14 00:01:29;;;;;;;;;;;;;;;6.02;69.66;101805.75;5138437;27;1894;-96
2022/03/14 00:03:58;;;;;;;;;;;;;;;6.00;69.83;101800.56;5133339;27;1493;-96
2022/03/14 00:06:25;;;;;;;;;;;;;;;5.99;69.96;101801.56;5129889;27;1187;-96
2022/03/14 00:08:55;;;;;;;;;;;;;;;5.97;70.02;101808.06;5125658;28;1819;-96
2022/03/14 00:11:22;;;;;;;;;;;;;;;5.97;69.72;101808.06;5154967;27;1323;-96
2022/03/14 00:13:50;;;;;;;;;;;;;;;5.94;69.96;101806.53;5127156;28;1369;-96
2022/03/14 00:16:22;;;;;;;;;;;;;;;5.94;70.11;101805.69;5132075;27;1295;-96
2022/03/14 00:18:50;;;;;;;;;;;;;;;5.91;69.92;101807.69;5145804;27;1242;-96
2022/03/14 00:21:18;;;;;;;;;;;;;;;5.89;69.89;101807.00;5144100;27;1984;-96
2022/03/14 00:23:47;;;;;;;;;;;;;;;5.89;69.79;101803.47;5129405;27;1727;-96
2022/03/14 00:26:15;;;;;;;;;;;;;;;5.87;69.56;101800.13;5128103;27;1391;-96
2022/03/14 00:28:43;;;;;;;;;;;;;;;5.86;69.60;101803.81;5142932;27;1962;-96
2022/03/14 00:31:10;;;;;;;;;;;;;;;5.83;69.68;101799.59;5137161;27;1339;-96
2022/03/14 00:33:39;;;;;;;;;;;;;;;5.83;69.62;101801.44;5126183;28;1519;-96
2022/03/14 00:36:08;;;;;;;;;;;;;;;5.81;69.87;101800.75;5133044;27;1558;-96
2022/03/14 00:38:35;;;;;;;;;;;;;;;5.79;69.80;101798.22;5143340;27;1253;-96
2022/03/14 00:41:02;;;;;;;;;;;;;;;5.78;69.55;101793.06;5145606;27;1918;-96
2022/03/14 00:43:30;;;;;;;;;;;;;;;5.76;69.83;101792.34;5133663;27;1782;-96
2022/03/14 00:45:57;;;;;;;;;;;;;;;5.76;69.86;101795.03;5124987;28;1202;-96
2022/03/14 00:48:25;;;;;;;;;;;;;;;5.74;69.73;101792.53;5131163;27;1322;-96
2022/03/14 00:50:52;;;;;;;;;;;;;;;5.73;69.71;101801.53;5140937;27;1317;-96
2022/03/14 00:53:19;;;;;;;;;;;;;;;5.71;69.69;101795.53;5130227;27;1411;-96
2022/03/14 00:55:48;;;;;;;;;;;;;;;5.70;69.57;101797.34;5124654;28;1249;-96
2022/03/14 00:58:16;;;;;;;;;;;;;;;5.68;69.45;101796.66;5143849;27;1220;-96
2022/03/14 01:00:43;;;;;;;;;;;;;;;5.68;69.65;101796.66;5144879;27;1909;-96
2022/03/14 01:03:10;;;;;;;;;;;;;;;5.65;69.68;101788.13;5135456;27;1714;-96
2022/03/14 01:05:37;;;;;;;;;;;;;;;5.64;69.73;101794.47;5125854;28;1290;-96
2022/03/14 01:08:06;;;;;;;;;;;;;;;5.64;69.65;101791.78;5130191;27;2018;-96
2022/03/14 01:10:33;;;;;;;;;;;;;;;5.61;69.68;101792.09;5124378;28;1299;-96
2022/03/14 01:13:02;;;;;;;;;;;;;;;5.60;69.55;101793.94;5123811;28;1322;-96
2022/03/14 01:15:32;;;;;;;;;;;;;;;5.59;69.62;101797.63;5123986;28;1334;-96
2022/03/14 01:17:58;;;;;;;;;;;;;;;5.57;69.44;101801.44;5139374;27;1313;-96
2022/03/14 01:20:25;;;;;;;;;;;;;;;5.57;69.57;101801.44;5124369;28;1902;-96
2022/03/14 01:22:54;;;;;;;;;;;;;;;5.53;69.54;101797.38;5124181;28;1782;-96
2022/03/14 01:25:21;;;;;;;;;;;;;;;5.53;69.16;101802.72;5128403;27;1696;-96
2022/03/14 01:27:50;;;;;;;;;;;;;;;5.51;69.29;101802.91;5134612;27;1230;-96
2022/03/14 01:30:16;;;;;;;;;;;;;;;5.50;69.50;101801.22;5125815;28;1656;-96
2022/03/14 01:32:44;;;;;;;;;;;;;;;5.49;69.48;101807.56;5133211;27;1216;-96
2022/03/14 01:35:12;;;;;;;;;;;;;;;5.46;69.45;101797.19;5116370;28;1505;-96
2022/03/14 01:37:40;;;;;;;;;;;;;;;5.45;69.63;101798.19;5139627;27;1271;-96
2022/03/14 01:40:07;;;;;;;;;;;;;;;5.42;69.26;101802.00;5127597;28;1419;-96
2022/03/14 01:42:34;;;;;;;;;;;;;;;5.42;69.43;101802.00;5125574;28;1664;-96
2022/03/14 01:45:03;;;;;;;;;;;;;;;5.40;69.41;101795.97;5132947;28;1264;-96
2022/03/14 01:47:34;;;;;;;;;;;;;;;5.40;69.50;101803.16;5142817;28;1306;-96
2022/03/14 01:50:01;;;;;;;;;;;;;;;5.37;69.59;101803.47;5126893;28;1394;-96
2022/03/14 01:52:28;;;;;;;;;;;;;;;5.37;69.36;101811.47;5125474;28;1869;-96
2022/03/14 01:54:55;;;;;;;;;;;;;;;5.35;69.28;101811.59;5136620;28;1661;-96
2022/03/14 01:57:22;;;;;;;;;;;;;;;5.33;69.34;101824.31;5143575;28;1246;-96
2022/03/14 01:59:49;;;;;;;;;;;;;;;5.32;69.30;101819.94;5128278;28;1593;-96
2022/03/14 02:02:16;;;;;;;;;;;;;;;5.30;69.25;101829.97;5141430;27;1981;-96
2022/03/14 02:04:43;;;;;;;;;;;;;;;5.30;69.32;101819.28;5141726;27;1205;-96
2022/03/14 02:07:10;;;;;;;;;;;;;;;5.28;69.22;101818.56;5134425;27;1239;-96
2022/03/14 02:09:38;;;;;;;;;;;;;;;5.27;69.24;101824.09;5140645;27;1255;-96
2022/03/14 02:12:05;;;;;;;;;;;;;;;5.24;69.36;101814.53;5127991;28;1434;-96
2022/03/14 02:14:35;;;;;;;;;;;;;;;5.23;69.35;101818.19;5133802;27;1451;-96
2022/03/14 02:17:02;;;;;;;;;;;;;;;5.22;69.26;101817.34;5128514;27;1838;-96
2022/03/14 02:19:28;;;;;;;;;;;;;;;5.21;69.52;101820.19;5141063;27;1385;-96
2022/03/14 02:21:55;;;;;;;;;;;;;;;5.19;69.38;101811.50;5133887;27;1909;-96
2022/03/14 02:24:22;;;;;;;;;;;;;;;5.17;69.25;101814.31;5127659;28;1350;-96
2022/03/14 02:26:49;;;;;;;;;;;;;;;5.17;69.26;101808.13;5142164;27;1445;-96
2022/03/14 02:29:19;;;;;;;;;;;;;;;5.15;69.35;101808.28;5147685;27;1321;-96
2022/03/14 02:31:46;;;;;;;;;;;;;;;5.13;69.28;101807.59;5144754;27;1360;-96
2022/03/14 02:34:13;;;;;;;;;;;;;;;5.12;69.36;101810.44;5138886;27;1325;-96
2022/03/14 02:36:40;;;;;;;;;;;;;;;5.11;69.33;101808.75;5126639;28;1349;-96
2022/03/14 02:39:07;;;;;;;;;;;;;;;5.10;69.17;101802.56;5143049;27;1292;-96
2022/03/14 02:41:34;;;;;;;;;;;;;;;5.09;69.31;101811.59;5138225;27;1914;-96
2022/03/14 02:44:06;;;;;;;;;;;;;;;5.09;69.27;101811.59;5128340;27;1854;-96
2022/03/14 02:46:34;;;;;;;;;;;;;;;5.06;69.06;101811.88;5128061;28;1354;-96
2022/03/14 02:49:01;;;;;;;;;;;;;;;5.05;69.25;101809.34;5139415;27;1734;-96
2022/03/14 02:51:28;;;;;;;;;;;;;;;5.03;69.16;101809.53;5131266;27;1643;-96
2022/03/14 02:53:55;;;;;;;;;;;;;;;5.02;69.11;101815.84;5131293;27;1548;-96
2022/03/14 02:56:22;;;;;;;;;;;;;;;5.00;69.15;101812.50;5148761;27;1414;-96
2022/03/14 02:58:53;;;;;;;;;;;;;;;4.98;69.05;101815.31;5133442;27;1221;-96
2022/03/14 03:01:20;;;;;;;;;;;;;;;4.95;68.95;101820.94;5130484;27;1971;-96
2022/03/14 03:03:47;;;;;;;;;;;;;;;4.96;69.07;101824.47;5131508;27;1603;-96
2022/03/14 03:06:15;;;;;;;;;;;;;;;4.94;68.96;101827.28;5147473;27;1359;-96
2022/03/14 03:08:43;;;;;;;;;;;;;;;4.93;69.11;101832.78;5131787;27;1715;-96
2022/03/14 03:11:11;;;;;;;;;;;;;;;4.91;69.07;101832.06;5132742;27;1510;-96
2022/03/14 03:13:38;;;;;;;;;;;;;;;4.90;69.03;101827.75;5130572;27;1520;-96
2022/03/14 03:16:07;;;;;;;;;;;;;;;4.89;69.02;101842.09;5140536;27;1254;-96
2022/03/14 03:18:33;;;;;;;;;;;;;;;4.87;69.00;101842.22;5132152;27;1496;-96
2022/03/14 03:21:00;;;;;;;;;;;;;;;4.86;69.20;101835.22;5133730;27;1894;-96
2022/03/14 03:23:28;;;;;;;;;;;;;;;4.84;69.09;101826.50;5130747;27;1328;-96
2022/03/14 03:25:55;;;;;;;;;;;;;;;4.83;69.13;101826.69;5143969;27;1538;-96
2022/03/14 03:28:22;;;;;;;;;;;;;;;4.82;68.94;101819.63;5132882;27;1477;-96
2022/03/14 03:30:48;;;;;;;;;;;;;;;4.81;69.05;101821.47;5130143;27;1347;-96
2022/03/14 03:33:16;;;;;;;;;;;;;;;4.79;69.05;101828.78;5156016;27;1312;-96
2022/03/14 03:35:42;;;;;;;;;;;;;;;4.77;69.11;101818.28;5134228;27;1473;-96
2022/03/14 03:38:09;;;;;;;;;;;;;;;4.75;68.98;101817.56;5129803;27;1349;-96
2022/03/14 03:40:37;;;;;;;;;;;;;;;4.76;69.10;101823.75;5129219;27;1247;-96
2022/03/14 03:43:04;;;;;;;;;;;;;;;4.73;69.03;101827.56;5134843;27;1972;-96
2022/03/14 03:45:31;;;;;;;;;;;;;;;4.73;68.95;101826.72;5136519;27;1200;-96
2022/03/14 03:47:58;;;;;;;;;;;;;;;4.71;68.96;101826.06;5143462;27;1446;-96
2022/03/14 03:50:24;;;;;;;;;;;;;;;4.70;69.00;101824.34;5135467;27;1335;-96
2022/03/14 03:52:51;;;;;;;;;;;;;;;4.68;68.92;101823.69;5129197;27;1473;-96
2022/03/14 03:55:18;;;;;;;;;;;;;;;4.68;68.93;101834.34;5134385;27;1213;-96
2022/03/14 03:57:45;;;;;;;;;;;;;;;4.65;68.82;101830.16;5129912;27;1362;-96
2022/03/14 04:00:12;;;;;;;;;;;;;;;4.65;68.85;101840.00;5128344;27;1316;-96
2022/03/14 04:02:39;;;;;;;;;;;;;;;4.64;68.91;101820.44;5133056;27;1895;-96
2022/03/14 04:05:06;;;;;;;;;;;;;;;4.63;68.88;101832.13;5136798;27;1544;-96
2022/03/14 04:07:32;;;;;;;;;;;;;;;4.61;68.99;101833.25;5130767;27;1628;-96
2022/03/14 04:09:59;;;;;;;;;;;;;;;4.59;68.71;101824.56;5135757;27;1382;-96
2022/03/14 04:12:26;;;;;;;;;;;;;;;4.57;68.86;101827.38;5141874;27;1579;-96
2022/03/14 04:14:53;;;;;;;;;;;;;;;4.60;68.82;101834.25;5146829;27;1394;-96
2022/03/14 04:17:20;;;;;;;;;;;;;;;4.58;68.93;101829.06;5139102;27;1587;-96
2022/03/14 04:19:48;;;;;;;;;;;;;;;4.57;68.66;101824.72;5128229;27;1590;-96
2022/03/14 04:22:15;;;;;;;;;;;;;;;4.55;68.81;101826.69;5128932;27;1910;-96
2022/03/14 04:24:44;;;;;;;;;;;;;;;4.56;68.70;101828.38;5127184;27;1482;-96
2022/03/14 04:27:11;;;;;;;;;;;;;;;4.53;68.52;101821.53;5145102;27;1545;-96
2022/03/14 04:29:38;;;;;;;;;;;;;;;4.53;68.72;101824.19;5143515;27;1462;-96
2022/03/14 04:32:04;;;;;;;;;;;;;;;4.52;68.59;101821.66;5150580;27;1247;-96
2022/03/14 04:34:31;;;;;;;;;;;;;;;4.53;68.33;101828.69;5164461;27;1713;-96
2022/03/14 04:36:58;;;;;;;;;;;;;;;4.54;68.47;101828.53;5150945;27;1402;-96
2022/03/14 04:39:25;;;;;;;;;;;;;;;4.51;68.51;101827.97;5145656;27;1166;-96
2022/03/14 04:41:52;;;;;;;;;;;;;;;4.51;68.34;101828.81;5126093;27;2708;-96
2022/03/14 04:44:19;;;;;;;;;;;;;;;4.50;68.31;101823.63;5129848;27;1503;-96
2022/03/14 04:46:45;;;;;;;;;;;;;;;4.51;68.15;101831.50;5139359;27;1387;-96
2022/03/14 04:49:13;;;;;;;;;;;;;;;4.52;68.23;101830.50;5158534;27;1417;-96
2022/03/14 04:51:40;;;;;;;;;;;;;;;4.50;68.32;101840.50;5140462;27;1278;-96
2022/03/14 04:54:07;;;;;;;;;;;;;;;4.50;68.32;101835.16;5128459;27;1513;-96
2022/03/14 04:56:34;;;;;;;;;;;;;;;4.51;68.22;101836.81;5125498;27;1446;-96
2022/03/14 04:59:01;;;;;;;;;;;;;;;4.49;68.14;101835.28;5128898;27;1475;-96
2022/03/14 05:01:28;;;;;;;;;;;;;;;4.51;68.07;101833.31;5136021;27;2127;-96
2022/03/14 05:03:55;;;;;;;;;;;;;;;4.49;68.07;101835.28;5133106;27;1782;-96
2022/03/14 05:06:22;;;;;;;;;;;;;;;4.50;67.98;101834.28;5127048;27;1326;-96
2022/03/14 05:08:49;;;;;;;;;;;;;;;4.48;68.06;101823.78;5147221;27;1344;-96
2022/03/14 05:11:16;;;;;;;;;;;;;;;4.48;67.95;101829.13;5144980;27;1404;-96
2022/03/14 05:13:43;;;;;;;;;;;;;;;4.46;68.10;101830.25;5147059;27;1368;-96
2022/03/14 05:16:10;;;;;;;;;;;;;;;4.48;68.04;101828.28;5131460;27;1265;-96
2022/03/14 05:18:37;;;;;;;;;;;;;;;4.47;67.91;101829.25;5129983;27;1243;-96
2022/03/14 05:21:06;;;;;;;;;;;;;;;4.45;68.07;101826.75;5135823;27;1213;-96
2022/03/14 05:23:33;;;;;;;;;;;;;;;4.47;67.96;101822.13;5137251;27;1427;-96
2022/03/14 05:26:00;;;;;;;;;;;;;;;4.47;67.81;101827.44;5132240;27;1716;-96
2022/03/14 05:28:27;;;;;;;;;;;;;;;4.45;67.78;101825.91;5137075;27;1425;-96
2022/03/14 05:30:54;;;;;;;;;;;;;;;4.46;67.71;101833.75;5126797;27;1493;-96
2022/03/14 05:33:21;;;;;;;;;;;;;;;4.47;67.73;101839.94;5136990;27;1410;-96
2022/03/14 05:35:48;;;;;;;;;;;;;;;4.44;67.83;101840.22;5138552;27;1678;-96
2022/03/14 05:38:15;;;;;;;;;;;;;;;4.45;67.91;101845.44;5133789;27;1281;-96
2022/03/14 05:40:42;;;;;;;;;;;;;;;4.44;67.73;101835.75;5140046;27;1794;-96
2022/03/14 05:43:09;;;;;;;;;;;;;;;4.45;67.70;101836.59;5138999;27;1921;-96
2022/03/14 05:45:35;;;;;;;;;;;;;;;4.46;67.61;101840.91;5130454;27;1779;-96
2022/03/14 05:48:07;;;;;;;;;;;;;;;4.42;67.50;101840.38;5129912;28;1305;-96
2022/03/14 05:50:34;;;;;;;;;;;;;;;4.45;67.52;101840.09;5146587;28;1368;-96
2022/03/14 05:53:07;;;;;;;;;;;;;;;4.44;67.62;101843.75;5142578;28;1256;-96
2022/03/14 05:55:35;;;;;;;;;;;;;;;4.45;67.51;101848.09;5144210;28;1543;-96
2022/03/14 05:58:06;;;;;;;;;;;;;;;4.47;67.40;101850.59;5136016;28;1746;-96
2022/03/14 06:00:39;;;;;;;;;;;;;;;4.44;67.45;101854.44;5145068;28;1740;-96
2022/03/14 06:03:11;;;;;;;;;;;;;;;4.45;67.46;101848.09;5146159;28;1890;-96
2022/03/14 06:05:40;;;;;;;;;;;;;;;4.44;67.42;101846.44;5142395;28;1509;-96
2022/03/14 06:08:10;;;;;;;;;;;;;;;4.43;67.46;101843.88;5133277;28;1402;-96
2022/03/14 06:10:40;;;;;;;;;;;;;;;4.44;67.46;101840.22;5136210;28;1729;-96
2022/03/14 06:13:10;;;;;;;;;;;;;;;4.44;67.26;101835.75;5140941;27;1697;-96
2022/03/14 06:15:38;;;;;;;;;;;;;;;4.43;67.26;101844.72;5135067;28;1276;-96
2022/03/14 06:18:08;;;;;;;;;;;;;;;4.44;67.03;101842.88;5130799;28;1782;-96
2022/03/14 06:20:38;;;;;;;;;;;;;;;4.47;67.21;101847.94;5144808;28;1678;-96
2022/03/14 06:23:07;;;;;;;;;;;;;;;4.46;67.14;101846.25;5135042;28;1959;-96
2022/03/14 06:25:38;;;;;;;;;;;;;;;4.46;67.03;101848.94;5139117;28;1728;-96
2022/03/14 06:28:10;;;;;;;;;;;;;;;4.44;66.99;101851.75;5149489;28;1513;-96
2022/03/14 06:30:47;;;;;;;;;;;;;;;4.43;67.24;101852.72;5144976;28;1762;-96
2022/03/14 06:33:16;;;;;;;;;;;;;;;4.46;67.00;101854.25;5132849;28;1610;-96
2022/03/14 06:35:46;;;;;;;;;;;;;;;4.45;66.97;101864.09;5132129;28;1408;-96
2022/03/14 06:38:16;;;;;;;;;;;;;;;4.45;66.95;101866.78;5149406;28;1202;-96
2022/03/14 06:40:43;;;;;;;;;;;;;;;4.44;66.99;101872.22;5148229;28;2159;-96
2022/03/14 06:43:17;;;;;;;;;;;;;;;4.47;66.98;101878.13;5144706;28;1890;-96
2022/03/14 06:45:48;;;;;;;;;;;;;;;4.45;66.99;101890.78;5131310;28;1221;-96
2022/03/14 06:48:15;;;;;;;;;;;;;;;4.46;66.98;101894.28;5137653;27;1491;-96
2022/03/14 06:50:43;;;;;;;;;;;;;;;4.48;66.85;101894.97;5135287;27;1711;-96
2022/03/14 06:53:10;;;;;;;;;;;;;;;4.44;67.03;101897.13;5144890;27;1628;-96
2022/03/14 06:55:37;;;;;;;;;;;;;;;4.44;66.77;101891.78;5139162;27;1409;-96
2022/03/14 06:58:06;;;;;;;;;;;;;;;4.42;66.88;101888.41;5132951;27;1186;-96
2022/03/14 07:00:34;;;;;;;;;;;;;;;4.45;66.95;101892.63;5134597;27;1848;-96
2022/03/14 07:03:00;;;;;;;;;;;;;;;4.44;66.94;101897.13;5129733;27;1917;-96
2022/03/14 07:05:27;;;;;;;;;;;;;;;4.47;66.80;101904.81;5139016;27;1512;-96
2022/03/14 07:07:54;;;;;;;;;;;;;;;4.44;66.88;101906.91;5140488;27;1214;-96
2022/03/14 07:10:21;;;;;;;;;;;;;;;4.47;66.85;101906.63;5143153;27;1588;-96
2022/03/14 07:12:48;;;;;;;;;;;;;;;4.44;66.86;101894.44;5130419;27;1544;-96
2022/03/14 07:15:16;;;;;;;;;;;;;;;4.46;66.66;101899.63;5129685;27;1730;-96
2022/03/14 07:17:42;;;;;;;;;;;;;;;4.47;66.63;101888.81;5127962;27;1261;-96
2022/03/14 07:20:09;;;;;;;;;;;;;;;4.50;66.74;101887.66;5129081;27;1200;-96
2022/03/14 07:22:39;;;;;;;;;;;;;;;4.48;66.64;101893.16;5124915;27;1914;-96
2022/03/14 07:25:06;;;;;;;;;;;;;;;4.49;66.63;101891.31;5130878;27;1513;-96
2022/03/14 07:27:33;;;;;;;;;;;;;;;4.47;66.74;101896.81;5124020;27;1714;-96
2022/03/14 07:29:59;;;;;;;;;;;;;;;4.46;66.67;101894.28;5135459;27;1334;-96
2022/03/14 07:32:26;;;;;;;;;;;;;;;4.46;66.89;101897.78;5129997;27;1358;-96
2022/03/14 07:34:53;;;;;;;;;;;;;;;4.48;66.66;101900.31;5129662;27;1365;-96
2022/03/14 07:37:20;;;;;;;;;;;;;;;4.48;66.61;101894.97;5125740;27;1501;-96
2022/03/14 07:39:46;;;;;;;;;;;;;;;4.47;66.59;101899.50;5136984;27;1437;-96
2022/03/14 07:42:13;;;;;;;;;;;;;;;4.49;66.40;101904.66;5123136;27;1981;-96
2022/03/14 07:44:39;;;;;;;;;;;;;;;4.49;66.83;101910.81;5119916;27;2112;-95
2022/03/14 07:47:10;;;;;;;;;;;;;;;4.51;66.66;101918.69;5126618;27;1846;-96
2022/03/14 07:49:37;;;;;;;;;;;;;;;4.52;66.40;101921.22;5132007;27;2105;-96
2022/03/14 07:52:04;;;;;;;;;;;;;;;4.53;66.72;101924.75;5127346;27;2188;-96
2022/03/14 07:54:30;;;;;;;;;;;;;;;4.50;66.60;101923.19;5132212;27;1435;-96
2022/03/14 07:56:57;;;;;;;;;;;;;;;4.50;66.80;101923.19;5133850;27;1191;-96
2022/03/14 07:59:23;;;;;;;;;;;;;;;4.58;66.52;101926.94;5129331;27;1963;-96
2022/03/14 08:01:50;;;;;;;;;;;;;;;4.53;66.65;101922.91;5139926;27;1910;-96
2022/03/14 08:04:16;;;;;;;;;;;;;;;4.57;66.46;101931.47;5134259;27;1902;-96
2022/03/14 08:06:43;;;;;;;;;;;;;;;4.59;66.48;101929.50;5120645;27;2074;-96
2022/03/14 08:09:09;;;;;;;;;;;;;;;4.59;66.49;101925.94;5120532;27;1795;-96
2022/03/14 08:11:38;;;;;;;;;;;;;;;4.56;66.67;101924.44;5138746;27;1388;-96
2022/03/14 08:14:04;;;;;;;;;;;;;;;4.59;66.55;101928.63;5140867;27;1313;-96
2022/03/14 08:16:31;;;;;;;;;;;;;;;4.58;66.66;101926.94;5122220;27;1649;-96
2022/03/14 08:18:57;;;;;;;;;;;;;;;4.60;66.47;101933.00;5144731;27;2063;-96
2022/03/14 08:21:24;;;;;;;;;;;;;;;4.61;66.70;101932.00;5142711;27;2105;-96
2022/03/14 08:23:52;;;;;;;;;;;;;;;4.59;66.55;101934.81;5130127;27;2369;-96
2022/03/14 08:26:18;;;;;;;;;;;;;;;4.62;66.59;101931.00;5124452;27;1230;-96
2022/03/14 08:28:45;;;;;;;;;;;;;;;4.61;66.82;101937.34;5130030;27;1505;-96
2022/03/14 08:31:12;;;;;;;;;;;;;;;4.64;66.66;101927.19;5128111;27;2003;-96
2022/03/14 08:33:41;;;;;;;;;;;;;;;4.63;66.71;101938.03;5125426;27;2257;-96
2022/03/14 08:36:08;;;;;;;;;;;;;;;4.67;66.42;101928.72;5123693;27;2066;-96
2022/03/14 08:38:34;;;;;;;;;;;;;;;4.67;66.63;101931.41;5121547;27;1827;-96
2022/03/14 08:41:01;;;;;;;;;;;;;;;4.68;66.55;101925.09;5125749;27;1846;-96
2022/03/14 08:43:30;;;;;;;;;;;;;;;4.68;66.59;101925.09;5131093;27;1905;-96
2022/03/14 08:45:59;;;;;;;;;;;;;;;4.68;66.57;101917.94;5121959;27;1455;-96
2022/03/14 08:48:26;;;;;;;;;;;;;;;4.74;66.45;101925.34;5130152;27;1313;-96
2022/03/14 08:50:52;;;;;;;;;;;;;;;4.73;66.50;101933.47;5133906;27;1392;-96
2022/03/14 08:53:19;;;;;;;;;;;;;;;4.73;66.55;101928.16;5139465;27;1624;-96
2022/03/14 08:55:46;;;;;;;;;;;;;;;4.75;66.71;101932.34;5139678;27;1262;-96
2022/03/14 08:58:13;;;;;;;;;;;;;;;4.78;66.53;101929.38;5128283;27;2099;-96
2022/03/14 09:00:40;;;;;;;;;;;;;;;4.76;66.75;101930.50;5121612;27;1510;-96
2022/03/14 09:03:07;;;;;;;;;;;;;;;4.80;66.46;101931.09;5128878;27;1905;-96
2022/03/14 09:05:33;;;;;;;;;;;;;;;4.77;66.56;101933.06;5119887;27;1346;-96
2022/03/14 09:08:00;;;;;;;;;;;;;;;4.81;66.62;101927.41;5138006;27;1195;-96
2022/03/14 09:10:26;;;;;;;;;;;;;;;4.81;66.71;101922.91;5118558;27;1332;-96
2022/03/14 09:12:55;;;;;;;;;;;;;;;4.85;66.72;101920.78;5122024;27;1954;-96
2022/03/14 09:15:21;;;;;;;;;;;;;;;4.87;66.34;101916.13;5123883;27;1354;-96
2022/03/14 09:17:48;;;;;;;;;;;;;;;4.86;66.58;101914.47;5119279;27;1192;-96
2022/03/14 09:20:15;;;;;;;;;;;;;;;4.88;66.69;101909.81;5153633;27;1292;-96
2022/03/14 09:22:44;;;;;;;;;;;;;;;4.87;66.75;101911.63;5121661;27;1914;-96
2022/03/14 09:25:10;;;;;;;;;;;;;;;4.90;66.52;101908.66;5123312;27;1405;-96
2022/03/14 09:27:37;;;;;;;;;;;;;;;4.92;66.57;101913.88;5120525;27;2220;-96
2022/03/14 09:30:04;;;;;;;;;;;;;;;4.91;66.75;101910.38;5121368;27;1289;-96
2022/03/14 09:32:31;;;;;;;;;;;;;;;4.93;66.76;101910.19;5138513;27;1510;-96
2022/03/14 09:35:00;;;;;;;;;;;;;;;4.95;66.69;101903.72;5129404;27;1446;-96
2022/03/14 09:37:27;;;;;;;;;;;;;;;4.96;66.68;101907.22;5131856;27;1391;-96
2022/03/14 09:39:55;;;;;;;;;;;;;;;4.99;66.60;101902.41;5125158;27;1875;-96
2022/03/14 09:42:22;;;;;;;;;;;;;;;5.00;66.57;101900.63;5135834;27;1970;-96
2022/03/14 09:44:53;;;;;;;;;;;;;;;5.00;66.69;101905.97;5134937;28;1663;-96
2022/03/14 09:47:23;;;;;;;;;;;;;;;5.03;66.90;101912.81;5142682;27;1405;-96
2022/03/14 09:49:51;;;;;;;;;;;;;;;5.04;66.71;101915.34;5136904;28;1256;-96
2022/03/14 09:52:31;;;;;;;;;;;;;;;5.05;66.81;101913.50;5125954;27;1306;-96
2022/03/14 09:57:47;;;;;;;;;;;;;;;5.08;66.78;101915.88;5133903;28;1386;-96
2022/03/14 10:00:18;;;;;;;;;;;;;;;5.10;66.74;101919.25;5146745;27;1617;-96
2022/03/14 10:05:37;;;;;;;;;;;;;;;5.10;66.78;101914.72;5151111;28;1433;-96
2022/03/14 10:13:33;;;;;;;;;;;;;;;5.15;66.84;101904.44;5131789;28;1255;-96
2022/03/14 10:16:08;;;;;;;;;;;;;;;5.18;66.86;101904.16;5138102;28;1314;-96
2022/03/14 10:19:01;;;;;;;;;;;;;;;5.20;66.84;101910.16;5147037;27;1179;-96
2022/03/14 10:21:37;;;;;;;;;;;;;;;5.18;66.99;101897.97;5153255;27;1341;-96
2022/03/14 10:30:08;;;;;;;;;;;;;;;5.24;67.20;101898.19;5175779;27;617;-96
2022/03/14 10:33:01;;;;;;;;;;;;;;;5.26;67.14;101887.34;5134655;27;1525;-96
2022/03/14 11:09:21;;;;;;;;;;;;;;;5.53;67.24;101878.41;4992493;28;2035;-96
2022/03/14 11:11:48;;;;;;;;;;;;;;;5.54;67.22;101874.75;4958194;29;1216;-96
2022/03/14 11:14:15;;;;;;;;;;;;;;;5.55;67.51;101873.75;4963266;28;1313;-96
2022/03/14 11:16:42;;;;;;;;;;;;;;;5.59;67.23;101866.25;4954655;28;1324;-96
2022/03/14 11:19:12;;;;;;;;;;;;;;;5.59;67.48;101867.09;4965229;28;1256;-96
2022/03/14 11:21:40;;;;;;;;;;;;;;;5.62;67.45;101858.78;4963867;28;1242;-96
2022/03/14 19:52:09;;;;;;;;;;;;;;;7.71;71.86;101818.78;4989637;28;1956;-96
2022/03/14 21:23:28;;;;;;;;;;;;;;;7.29;71.14;101800.22;4883125;29;1884;-96
2022/03/14 21:26:00;;;;;;;;;;;;;;;7.27;71.10;101796.88;4884396;29;1518;-96
2022/03/14 21:28:36;;;;;;;;;;;;;;;7.25;71.32;101796.19;4916513;29;1799;-96
2022/03/14 21:31:05;;;;;;;;;;;;;;;7.23;71.22;101791.00;4899358;29;1925;-96
2022/03/14 21:33:37;;;;;;;;;;;;;;;7.23;71.40;101787.47;4888771;29;1276;-96
2022/03/14 21:36:05;;;;;;;;;;;;;;;7.21;70.92;101786.84;4890673;29;1580;-96
2022/03/14 21:41:45;;;;;;;;;;;;;;;7.18;70.88;101784.50;4906479;29;2202;-96
2022/03/14 21:44:12;;;;;;;;;;;;;;;7.18;71.29;101785.31;4880599;29;2468;-96
2022/03/14 21:46:39;;;;;;;;;;;;;;;7.15;71.01;101782.16;4892820;29;1367;-96
2022/03/14 21:49:06;;;;;;;;;;;;;;;7.14;71.23;101777.78;4896236;29;2021;-96
2022/03/14 21:51:34;;;;;;;;;;;;;;;7.12;71.25;101783.31;4909960;29;2017;-96
2022/03/14 21:54:01;;;;;;;;;;;;;;;7.12;70.86;101782.44;4910387;29;1288;-96
2022/03/14 21:56:28;;;;;;;;;;;;;;;7.10;71.04;101787.16;4908792;29;2141;-96
2022/03/14 21:58:58;;;;;;;;;;;;;;;7.08;71.23;101786.47;4908773;29;1857;-96
2022/03/14 22:01:30;;;;;;;;;;;;;;;7.06;70.90;101781.31;4913867;29;1322;-96
2022/03/14 22:03:57;;;;;;;;;;;;;;;7.07;71.01;101790.16;4932898;28;1967;-96
2022/03/14 22:06:25;;;;;;;;;;;;;;;7.04;70.68;101785.97;4987069;28;1830;-96
2022/03/14 22:08:53;;;;;;;;;;;;;;;7.03;70.88;101787.00;4973971;28;1622;-96
2022/03/14 22:11:20;;;;;;;;;;;;;;;6.99;71.13;101789.16;4990124;28;1472;-96
2022/03/14 22:13:49;;;;;;;;;;;;;;;6.98;71.15;101781.28;4987100;28;1539;-96
2022/03/14 22:16:16;;;;;;;;;;;;;;;6.97;70.77;101776.91;4974302;28;1821;-96
2022/03/14 22:18:43;;;;;;;;;;;;;;;6.96;71.00;101772.56;4994698;28;1309;-96
2022/03/14 22:21:10;;;;;;;;;;;;;;;6.94;70.71;101779.94;4992058;28;1734;-96
2022/03/14 22:23:37;;;;;;;;;;;;;;;6.93;71.02;101775.59;4992861;28;1896;-96
2022/03/14 22:26:04;;;;;;;;;;;;;;;6.91;70.76;101775.78;4974994;28;1208;-96
2022/03/14 22:28:32;;;;;;;;;;;;;;;6.89;70.89;101766.22;4975462;28;1253;-96
2022/03/14 22:30:59;;;;;;;;;;;;;;;6.89;70.96;101766.22;4977477;28;1773;-96
2022/03/14 22:33:26;;;;;;;;;;;;;;;6.87;70.65;101765.53;5009879;28;1535;-96
2022/03/14 22:35:52;;;;;;;;;;;;;;;6.85;70.85;101762.19;4989672;28;1212;-96
2022/03/14 22:38:19;;;;;;;;;;;;;;;6.84;70.95;101756.00;4975392;28;1292;-96
2022/03/14 22:40:47;;;;;;;;;;;;;;;6.81;70.54;101762.50;4973112;28;1347;-96
2022/03/14 22:43:14;;;;;;;;;;;;;;;6.80;70.83;101758.16;4978067;28;1711;-96
2022/03/14 22:45:43;;;;;;;;;;;;;;;6.78;70.52;101753.97;5008613;28;1906;-96
2022/03/14 22:48:09;;;;;;;;;;;;;;;6.76;70.89;101748.78;5009244;28;1204;-96
2022/03/14 22:50:37;;;;;;;;;;;;;;;6.74;70.65;101750.81;5030742;28;1346;-96
2022/03/14 22:53:04;;;;;;;;;;;;;;;6.74;70.88;101747.28;5029990;28;1220;-96
2022/03/14 22:55:32;;;;;;;;;;;;;;;6.72;70.63;101749.28;5011556;28;1218;-96
2022/03/14 22:57:58;;;;;;;;;;;;;;;6.71;70.65;101744.94;5045849;28;1789;-96
2022/03/14 23:00:25;;;;;;;;;;;;;;;6.69;70.47;101750.44;5030088;28;1736;-96
2022/03/14 23:05:37;;;;;;;;;;;;;;;6.65;70.50;101746.44;5030078;28;1970;-96
2022/03/14 23:08:22;;;;;;;;;;;;;;;6.64;70.80;101741.25;5030228;28;1181;-96
2022/03/14 23:13:34;;;;;;;;;;;;;;;6.60;70.60;101746.09;5027191;28;1737;-96
2022/03/14 23:16:04;;;;;;;;;;;;;;;6.58;70.33;101740.06;5025734;28;1270;-96
2022/03/14 23:18:31;;;;;;;;;;;;;;;6.55;70.36;101735.88;5010486;28;1231;-96
2022/03/14 23:20:58;;;;;;;;;;;;;;;6.54;70.51;101736.88;5011205;28;1396;-96
2022/03/14 23:23:27;;;;;;;;;;;;;;;6.53;70.33;101727.19;5028733;28;1300;-96
2022/03/14 23:25:55;;;;;;;;;;;;;;;6.51;70.39;101731.03;5026752;28;1656;-96
2022/03/14 23:28:22;;;;;;;;;;;;;;;6.51;70.39;101725.66;5027617;28;1216;-96
2022/03/14 23:30:49;;;;;;;;;;;;;;;6.49;70.27;101731.16;5028582;28;1216;-96
2022/03/14 23:33:15;;;;;;;;;;;;;;;6.49;70.52;101730.34;5028325;28;1315;-96
2022/03/14 23:35:42;;;;;;;;;;;;;;;6.48;70.30;101731.34;5029077;28;1232;-96
2022/03/14 23:38:09;;;;;;;;;;;;;;;6.45;70.26;101732.50;5028148;28;1431;-96
2022/03/14 23:40:37;;;;;;;;;;;;;;;6.43;70.20;101725.63;5025641;28;1961;-96
2022/03/14 23:43:04;;;;;;;;;;;;;;;6.42;70.26;101730.16;5027827;28;1297;-96
2022/03/14 23:45:31;;;;;;;;;;;;;;;6.40;70.68;101725.97;5043363;28;1979;-96
2022/03/14 23:47:57;;;;;;;;;;;;;;;6.37;70.36;101725.28;5027167;28;1414;-96
2022/03/14 23:50:26;;;;;;;;;;;;;;;6.36;70.21;101723.63;5023285;28;1467;-96
2022/03/14 23:52:53;;;;;;;;;;;;;;;6.35;70.21;101724.63;5008665;28;2145;-96
2022/03/14 23:55:19;;;;;;;;;;;;;;;6.34;70.09;101725.63;5019662;28;1806;-96
2022/03/14 23:57:46;;;;;;;;;;;;;;;6.32;70.21;101724.09;5027224;28;1311;-96
